sensor_id;sensor_type;location;lat;lon;timestamp;temperature;humidity
31725;DHT22;18306;40.960;14.836;2023-01-16T00:01:47;13.40;99.90
31725;DHT22;18306;40.960;14.836;2023-01-16T00:04:22;13.40;99.90
31725;DHT22;18306;40.960;14.836;2023-01-16T00:06:54;13.40;99.90
31725;DHT22;18306;40.960;14.836;2023-01-16T00:09:23;13.40;99.90
31725;DHT22;18306;40.960;14.836;2023-01-16T00:11:53;13.50;99.90
31725;DHT22;18306;40.960;14.836;2023-01-16T00:14:21;13.60;99.90
31725;DHT22;18306;40.960;14.836;2023-01-16T00:16:51;13.50;99.90
31725;DHT22;18306;40.960;14.836;2023-01-16T00:19:21;13.50;99.90
31725;DHT22;18306;40.960;14.836;2023-01-16T00:21:52;13.60;99.90
31725;DHT22;18306;40.960;14.836;2023-01-16T00:24:22;13.50;99.90
31725;DHT22;18306;40.960;14.836;2023-01-16T00:26:51;13.50;99.90
31725;DHT22;18306;40.960;14.836;2023-01-16T00:29:25;13.60;99.90
31725;DHT22;18306;40.960;14.836;2023-01-16T00:31:55;13.60;99.90
31725;DHT22;18306;40.960;14.836;2023-01-16T00:34:28;13.60;99.90
31725;DHT22;18306;40.960;14.836;2023-01-16T00:36:57;13.60;99.90
31725;DHT22;18306;40.960;14.836;2023-01-16T00:39:27;13.60;99.90
31725;DHT22;18306;40.960;14.836;2023-01-16T00:41:57;13.60;99.90
31725;DHT22;18306;40.960;14.836;2023-01-16T00:44:27;13.60;99.90
31725;DHT22;18306;40.960;14.836;2023-01-16T00:46:57;13.50;99.90
31725;DHT22;18306;40.960;14.836;2023-01-16T00:49:25;13.60;99.90
31725;DHT22;18306;40.960;14.836;2023-01-16T00:51:54;13.70;99.90
31725;DHT22;18306;40.960;14.836;2023-01-16T00:54:24;13.70;99.90
31725;DHT22;18306;40.960;14.836;2023-01-16T00:56:55;13.70;99.90
31725;DHT22;18306;40.960;14.836;2023-01-16T00:59:28;13.70;99.90
31725;DHT22;18306;40.960;14.836;2023-01-16T01:02:04;13.80;99.90
31725;DHT22;18306;40.960;14.836;2023-01-16T01:04:39;13.80;99.90
31725;DHT22;18306;40.960;14.836;2023-01-16T01:07:10;13.80;99.90
31725;DHT22;18306;40.960;14.836;2023-01-16T01:09:46;13.90;99.90
31725;DHT22;18306;40.960;14.836;2023-01-16T01:12:22;13.80;99.90
31725;DHT22;18306;40.960;14.836;2023-01-16T01:14:59;13.80;99.90
31725;DHT22;18306;40.960;14.836;2023-01-16T01:17:39;13.80;99.90
31725;DHT22;18306;40.960;14.836;2023-01-16T01:20:16;13.80;99.90
31725;DHT22;18306;40.960;14.836;2023-01-16T01:22:52;13.80;99.90
31725;DHT22;18306;40.960;14.836;2023-01-16T01:25:38;13.90;99.90
31725;DHT22;18306;40.960;14.836;2023-01-16T01:28:16;13.90;99.90
31725;DHT22;18306;40.960;14.836;2023-01-16T01:30:50;13.90;99.90
31725;DHT22;18306;40.960;14.836;2023-01-16T01:33:21;14.00;99.90
31725;DHT22;18306;40.960;14.836;2023-01-16T01:35:51;14.00;99.90
31725;DHT22;18306;40.960;14.836;2023-01-16T01:38:21;14.10;99.90
31725;DHT22;18306;40.960;14.836;2023-01-16T01:40:52;14.10;99.90
31725;DHT22;18306;40.960;14.836;2023-01-16T01:43:49;14.20;99.90
31725;DHT22;18306;40.960;14.836;2023-01-16T01:46:45;14.20;99.90
31725;DHT22;18306;40.960;14.836;2023-01-16T01:49:31;14.10;99.90
31725;DHT22;18306;40.960;14.836;2023-01-16T01:52:03;14.20;99.90
31725;DHT22;18306;40.960;14.836;2023-01-16T01:54:48;14.40;99.90
31725;DHT22;18306;40.960;14.836;2023-01-16T01:57:33;14.50;99.90
31725;DHT22;18306;40.960;14.836;2023-01-16T02:00:14;14.60;99.90
31725;DHT22;18306;40.960;14.836;2023-01-16T02:03:00;14.50;99.90
31725;DHT22;18306;40.960;14.836;2023-01-16T02:05:45;14.60;99.90
31725;DHT22;18306;40.960;14.836;2023-01-16T02:08:25;14.50;99.90
31725;DHT22;18306;40.960;14.836;2023-01-16T02:11:43;14.60;99.90
31725;DHT22;18306;40.960;14.836;2023-01-16T02:14:16;14.50;99.90
31725;DHT22;18306;40.960;14.836;2023-01-16T02:17:08;14.70;99.90
31725;DHT22;18306;40.960;14.836;2023-01-16T02:23:15;14.40;99.90
31725;DHT22;18306;40.960;14.836;2023-01-16T02:29:06;14.30;99.90
31725;DHT22;18306;40.960;14.836;2023-01-16T02:31:52;14.20;99.90
31725;DHT22;18306;40.960;14.836;2023-01-16T02:41:26;14.00;99.90
31725;DHT22;18306;40.960;14.836;2023-01-16T02:47:05;14.30;99.90
31725;DHT22;18306;40.960;14.836;2023-01-16T02:50:17;14.00;99.90
31725;DHT22;18306;40.960;14.836;2023-01-16T02:53:14;14.10;99.90
31725;DHT22;18306;40.960;14.836;2023-01-16T02:56:02;14.20;99.90
31725;DHT22;18306;40.960;14.836;2023-01-16T02:58:49;13.50;99.90
31725;DHT22;18306;40.960;14.836;2023-01-16T03:01:24;14.10;99.90
31725;DHT22;18306;40.960;14.836;2023-01-16T03:06:44;14.10;99.90
31725;DHT22;18306;40.960;14.836;2023-01-16T03:09:35;14.10;99.90
31725;DHT22;18306;40.960;14.836;2023-01-16T03:18:41;14.20;99.90
31725;DHT22;18306;40.960;14.836;2023-01-16T03:24:30;14.30;99.90
31725;DHT22;18306;40.960;14.836;2023-01-16T03:29:59;14.30;99.90
31725;DHT22;18306;40.960;14.836;2023-01-16T03:32:45;14.30;99.90
31725;DHT22;18306;40.960;14.836;2023-01-16T03:38:03;14.60;99.90
31725;DHT22;18306;40.960;14.836;2023-01-16T03:40:37;14.70;99.90
31725;DHT22;18306;40.960;14.836;2023-01-16T03:43:27;14.90;99.90
31725;DHT22;18306;40.960;14.836;2023-01-16T03:46:30;14.70;99.90
31725;DHT22;18306;40.960;14.836;2023-01-16T03:49:11;14.60;99.90
31725;DHT22;18306;40.960;14.836;2023-01-16T03:51:49;14.60;99.90
31725;DHT22;18306;40.960;14.836;2023-01-16T03:54:46;14.60;99.90
31725;DHT22;18306;40.960;14.836;2023-01-16T03:57:22;14.50;99.90
31725;DHT22;18306;40.960;14.836;2023-01-16T03:59:56;14.60;99.90
31725;DHT22;18306;40.960;14.836;2023-01-16T04:02:53;14.70;99.90
31725;DHT22;18306;40.960;14.836;2023-01-16T04:05:36;14.70;99.90
31725;DHT22;18306;40.960;14.836;2023-01-16T04:08:22;14.50;99.90
31725;DHT22;18306;40.960;14.836;2023-01-16T04:11:01;14.20;99.90
31725;DHT22;18306;40.960;14.836;2023-01-16T04:13:37;14.30;99.90
31725;DHT22;18306;40.960;14.836;2023-01-16T04:16:30;14.30;99.90
31725;DHT22;18306;40.960;14.836;2023-01-16T04:19:00;14.30;99.90
31725;DHT22;18306;40.960;14.836;2023-01-16T04:21:37;14.40;99.90
31725;DHT22;18306;40.960;14.836;2023-01-16T04:24:08;14.40;99.90
31725;DHT22;18306;40.960;14.836;2023-01-16T04:26:48;14.40;99.90
31725;DHT22;18306;40.960;14.836;2023-01-16T04:29:20;14.30;99.90
31725;DHT22;18306;40.960;14.836;2023-01-16T04:31:48;14.30;99.90
31725;DHT22;18306;40.960;14.836;2023-01-16T04:34:19;14.30;99.90
31725;DHT22;18306;40.960;14.836;2023-01-16T04:36:52;14.20;99.90
31725;DHT22;18306;40.960;14.836;2023-01-16T04:39:22;14.20;99.90
31725;DHT22;18306;40.960;14.836;2023-01-16T04:41:55;14.00;99.90
31725;DHT22;18306;40.960;14.836;2023-01-16T04:44:27;14.00;99.90
31725;DHT22;18306;40.960;14.836;2023-01-16T04:47:29;13.90;99.90
31725;DHT22;18306;40.960;14.836;2023-01-16T04:49:57;13.70;99.90
31725;DHT22;18306;40.960;14.836;2023-01-16T04:52:26;13.70;99.90
31725;DHT22;18306;40.960;14.836;2023-01-16T04:55:02;13.90;99.90
31725;DHT22;18306;40.960;14.836;2023-01-16T05:00:26;13.80;99.90
31725;DHT22;18306;40.960;14.836;2023-01-16T05:02:57;13.70;99.90
31725;DHT22;18306;40.960;14.836;2023-01-16T05:05:27;13.70;99.90
31725;DHT22;18306;40.960;14.836;2023-01-16T05:07:58;13.60;99.90
31725;DHT22;18306;40.960;14.836;2023-01-16T05:10:48;13.70;99.90
31725;DHT22;18306;40.960;14.836;2023-01-16T05:13:17;13.60;99.90
31725;DHT22;18306;40.960;14.836;2023-01-16T05:15:46;13.70;99.90
31725;DHT22;18306;40.960;14.836;2023-01-16T05:18:28;13.70;99.90
31725;DHT22;18306;40.960;14.836;2023-01-16T05:20:59;13.70;99.90
31725;DHT22;18306;40.960;14.836;2023-01-16T05:23:28;13.70;99.90
31725;DHT22;18306;40.960;14.836;2023-01-16T05:25:59;13.70;99.90
31725;DHT22;18306;40.960;14.836;2023-01-16T05:28:28;13.80;99.90
31725;DHT22;18306;40.960;14.836;2023-01-16T05:30:58;13.80;99.90
31725;DHT22;18306;40.960;14.836;2023-01-16T05:33:28;13.90;99.90
31725;DHT22;18306;40.960;14.836;2023-01-16T05:35:59;13.90;99.90
31725;DHT22;18306;40.960;14.836;2023-01-16T05:38:27;13.90;99.90
31725;DHT22;18306;40.960;14.836;2023-01-16T05:40:57;13.80;99.90
31725;DHT22;18306;40.960;14.836;2023-01-16T05:43:26;13.90;99.90
31725;DHT22;18306;40.960;14.836;2023-01-16T05:45:57;14.00;99.90
31725;DHT22;18306;40.960;14.836;2023-01-16T05:48:30;13.90;99.90
31725;DHT22;18306;40.960;14.836;2023-01-16T05:51:04;14.00;99.90
31725;DHT22;18306;40.960;14.836;2023-01-16T05:53:37;14.10;99.90
31725;DHT22;18306;40.960;14.836;2023-01-16T05:56:09;14.00;99.90
31725;DHT22;18306;40.960;14.836;2023-01-16T05:58:40;13.90;99.90
31725;DHT22;18306;40.960;14.836;2023-01-16T06:01:08;13.70;99.90
31725;DHT22;18306;40.960;14.836;2023-01-16T06:03:37;13.80;99.90
31725;DHT22;18306;40.960;14.836;2023-01-16T06:06:08;13.80;99.90
31725;DHT22;18306;40.960;14.836;2023-01-16T06:08:40;13.90;99.90
31725;DHT22;18306;40.960;14.836;2023-01-16T06:11:12;13.90;99.90
31725;DHT22;18306;40.960;14.836;2023-01-16T06:14:04;13.90;99.90
31725;DHT22;18306;40.960;14.836;2023-01-16T06:16:36;13.90;99.90
31725;DHT22;18306;40.960;14.836;2023-01-16T06:19:06;13.80;99.90
31725;DHT22;18306;40.960;14.836;2023-01-16T06:21:38;13.70;99.90
31725;DHT22;18306;40.960;14.836;2023-01-16T06:24:13;13.50;99.90
31725;DHT22;18306;40.960;14.836;2023-01-16T06:26:46;13.50;99.90
31725;DHT22;18306;40.960;14.836;2023-01-16T06:29:17;13.50;99.90
31725;DHT22;18306;40.960;14.836;2023-01-16T06:31:47;13.40;99.90
31725;DHT22;18306;40.960;14.836;2023-01-16T06:34:21;13.40;99.90
31725;DHT22;18306;40.960;14.836;2023-01-16T06:36:53;13.40;99.90
31725;DHT22;18306;40.960;14.836;2023-01-16T06:39:23;13.30;99.90
31725;DHT22;18306;40.960;14.836;2023-01-16T06:41:53;13.20;99.90
31725;DHT22;18306;40.960;14.836;2023-01-16T06:44:26;13.30;99.90
31725;DHT22;18306;40.960;14.836;2023-01-16T06:46:58;13.30;99.90
31725;DHT22;18306;40.960;14.836;2023-01-16T06:49:28;13.30;99.90
31725;DHT22;18306;40.960;14.836;2023-01-16T06:52:00;13.00;99.90
31725;DHT22;18306;40.960;14.836;2023-01-16T06:54:30;13.30;99.90
31725;DHT22;18306;40.960;14.836;2023-01-16T07:00:20;13.20;99.90
31725;DHT22;18306;40.960;14.836;2023-01-16T07:02:55;13.20;99.90
31725;DHT22;18306;40.960;14.836;2023-01-16T07:05:26;13.10;99.90
31725;DHT22;18306;40.960;14.836;2023-01-16T07:07:57;13.10;99.90
31725;DHT22;18306;40.960;14.836;2023-01-16T07:10:28;13.20;99.90
31725;DHT22;18306;40.960;14.836;2023-01-16T07:13:04;13.20;99.90
31725;DHT22;18306;40.960;14.836;2023-01-16T07:15:39;13.30;99.90
31725;DHT22;18306;40.960;14.836;2023-01-16T07:18:29;13.40;99.90
31725;DHT22;18306;40.960;14.836;2023-01-16T07:21:21;13.40;99.90
31725;DHT22;18306;40.960;14.836;2023-01-16T07:24:14;13.30;99.90
31725;DHT22;18306;40.960;14.836;2023-01-16T07:26:54;13.20;99.90
31725;DHT22;18306;40.960;14.836;2023-01-16T07:29:30;13.20;99.90
31725;DHT22;18306;40.960;14.836;2023-01-16T07:32:05;13.20;99.90
31725;DHT22;18306;40.960;14.836;2023-01-16T07:34:37;13.20;99.90
31725;DHT22;18306;40.960;14.836;2023-01-16T07:37:11;13.70;99.90
31725;DHT22;18306;40.960;14.836;2023-01-16T07:39:46;13.10;99.90
31725;DHT22;18306;40.960;14.836;2023-01-16T07:42:22;13.20;99.90
31725;DHT22;18306;40.960;14.836;2023-01-16T07:44:54;13.20;99.90
31725;DHT22;18306;40.960;14.836;2023-01-16T07:47:25;13.50;99.90
31725;DHT22;18306;40.960;14.836;2023-01-16T07:50:01;13.30;99.90
31725;DHT22;18306;40.960;14.836;2023-01-16T07:52:36;13.20;99.90
31725;DHT22;18306;40.960;14.836;2023-01-16T07:55:08;13.20;99.90
31725;DHT22;18306;40.960;14.836;2023-01-16T07:57:45;13.30;99.90
31725;DHT22;18306;40.960;14.836;2023-01-16T08:00:20;13.40;99.90
31725;DHT22;18306;40.960;14.836;2023-01-16T08:02:55;13.60;99.90
31725;DHT22;18306;40.960;14.836;2023-01-16T08:05:32;13.60;99.90
31725;DHT22;18306;40.960;14.836;2023-01-16T08:08:05;13.60;99.90
31725;DHT22;18306;40.960;14.836;2023-01-16T08:10:38;13.60;99.90
31725;DHT22;18306;40.960;14.836;2023-01-16T08:13:23;13.80;99.90
31725;DHT22;18306;40.960;14.836;2023-01-16T08:16:12;14.10;99.90
31725;DHT22;18306;40.960;14.836;2023-01-16T08:18:46;14.10;99.90
31725;DHT22;18306;40.960;14.836;2023-01-16T08:21:24;13.90;99.90
31725;DHT22;18306;40.960;14.836;2023-01-16T08:24:00;13.90;99.90
31725;DHT22;18306;40.960;14.836;2023-01-16T08:26:34;13.80;99.90
31725;DHT22;18306;40.960;14.836;2023-01-16T08:29:10;13.70;99.90
31725;DHT22;18306;40.960;14.836;2023-01-16T08:31:45;13.90;99.90
31725;DHT22;18306;40.960;14.836;2023-01-16T08:34:19;14.20;99.90
31725;DHT22;18306;40.960;14.836;2023-01-16T08:36:55;14.50;99.90
31725;DHT22;18306;40.960;14.836;2023-01-16T08:39:31;14.70;99.90
31725;DHT22;18306;40.960;14.836;2023-01-16T08:42:05;14.90;99.90
31725;DHT22;18306;40.960;14.836;2023-01-16T08:44:57;14.90;99.90
31725;DHT22;18306;40.960;14.836;2023-01-16T08:47:51;15.00;99.90
31725;DHT22;18306;40.960;14.836;2023-01-16T08:50:40;14.80;99.90
31725;DHT22;18306;40.960;14.836;2023-01-16T08:53:31;14.90;99.90
31725;DHT22;18306;40.960;14.836;2023-01-16T08:56:02;14.70;99.90
31725;DHT22;18306;40.960;14.836;2023-01-16T08:58:42;14.70;99.90
31725;DHT22;18306;40.960;14.836;2023-01-16T09:01:14;14.60;99.90
31725;DHT22;18306;40.960;14.836;2023-01-16T09:03:47;14.50;99.90
31725;DHT22;18306;40.960;14.836;2023-01-16T09:06:19;14.60;99.90
31725;DHT22;18306;40.960;14.836;2023-01-16T09:08:53;14.60;99.90
31725;DHT22;18306;40.960;14.836;2023-01-16T09:11:27;14.30;99.90
31725;DHT22;18306;40.960;14.836;2023-01-16T09:14:22;14.30;99.90
31725;DHT22;18306;40.960;14.836;2023-01-16T09:16:53;14.40;99.90
31725;DHT22;18306;40.960;14.836;2023-01-16T09:19:24;14.40;99.90
31725;DHT22;18306;40.960;14.836;2023-01-16T09:21:55;14.40;99.90
31725;DHT22;18306;40.960;14.836;2023-01-16T09:24:25;14.60;99.90
31725;DHT22;18306;40.960;14.836;2023-01-16T09:26:57;14.50;99.90
31725;DHT22;18306;40.960;14.836;2023-01-16T09:29:26;14.50;99.90
31725;DHT22;18306;40.960;14.836;2023-01-16T09:32:00;14.30;99.90
31725;DHT22;18306;40.960;14.836;2023-01-16T09:34:40;14.10;99.90
31725;DHT22;18306;40.960;14.836;2023-01-16T09:37:19;14.20;99.90
31725;DHT22;18306;40.960;14.836;2023-01-16T09:39:54;14.20;99.90
31725;DHT22;18306;40.960;14.836;2023-01-16T09:42:58;14.20;99.90
31725;DHT22;18306;40.960;14.836;2023-01-16T09:45:54;14.20;99.90
31725;DHT22;18306;40.960;14.836;2023-01-16T09:48:33;14.20;99.90
31725;DHT22;18306;40.960;14.836;2023-01-16T09:51:13;14.30;99.90
31725;DHT22;18306;40.960;14.836;2023-01-16T09:53:52;14.40;99.90
31725;DHT22;18306;40.960;14.836;2023-01-16T09:56:44;14.30;99.90
31725;DHT22;18306;40.960;14.836;2023-01-16T09:59:41;14.30;99.90
31725;DHT22;18306;40.960;14.836;2023-01-16T10:02:29;14.30;99.90
31725;DHT22;18306;40.960;14.836;2023-01-16T10:05:04;14.30;99.90
31725;DHT22;18306;40.960;14.836;2023-01-16T10:08:08;14.30;99.90
31725;DHT22;18306;40.960;14.836;2023-01-16T10:10:58;14.70;99.90
31725;DHT22;18306;40.960;14.836;2023-01-16T10:22:05;14.90;99.90
31725;DHT22;18306;40.960;14.836;2023-01-16T10:25:24;14.70;99.90
31725;DHT22;18306;40.960;14.836;2023-01-16T10:28:26;14.90;99.90
31725;DHT22;18306;40.960;14.836;2023-01-16T10:31:23;15.00;99.90
31725;DHT22;18306;40.960;14.836;2023-01-16T10:34:15;14.90;99.90
31725;DHT22;18306;40.960;14.836;2023-01-16T10:36:56;14.80;99.90
31725;DHT22;18306;40.960;14.836;2023-01-16T10:39:33;14.40;99.90
31725;DHT22;18306;40.960;14.836;2023-01-16T10:47:59;14.70;99.90
31725;DHT22;18306;40.960;14.836;2023-01-16T10:50:52;14.80;99.90
31725;DHT22;18306;40.960;14.836;2023-01-16T10:53:26;14.70;99.90
31725;DHT22;18306;40.960;14.836;2023-01-16T10:56:00;14.80;99.90
31725;DHT22;18306;40.960;14.836;2023-01-16T10:58:32;14.70;99.90
31725;DHT22;18306;40.960;14.836;2023-01-16T11:01:19;14.60;99.90
31725;DHT22;18306;40.960;14.836;2023-01-16T11:03:58;14.40;99.90
31725;DHT22;18306;40.960;14.836;2023-01-16T11:07:14;14.50;99.90
31725;DHT22;18306;40.960;14.836;2023-01-16T11:10:03;14.50;99.90
31725;DHT22;18306;40.960;14.836;2023-01-16T11:13:22;14.60;99.90
31725;DHT22;18306;40.960;14.836;2023-01-16T11:16:19;14.50;99.90
31725;DHT22;18306;40.960;14.836;2023-01-16T11:19:23;14.40;99.90
31725;DHT22;18306;40.960;14.836;2023-01-16T11:22:20;14.30;99.90
31725;DHT22;18306;40.960;14.836;2023-01-16T11:25:03;14.40;99.90
31725;DHT22;18306;40.960;14.836;2023-01-16T11:27:45;14.40;99.90
31725;DHT22;18306;40.960;14.836;2023-01-16T11:30:33;14.70;99.90
31725;DHT22;18306;40.960;14.836;2023-01-16T11:33:28;14.40;99.90
31725;DHT22;18306;40.960;14.836;2023-01-16T11:36:12;14.40;99.90
31725;DHT22;18306;40.960;14.836;2023-01-16T11:38:54;14.60;99.90
31725;DHT22;18306;40.960;14.836;2023-01-16T11:41:34;14.60;99.90
31725;DHT22;18306;40.960;14.836;2023-01-16T11:44:28;14.50;99.90
31725;DHT22;18306;40.960;14.836;2023-01-16T11:47:41;14.40;99.90
31725;DHT22;18306;40.960;14.836;2023-01-16T11:53:24;14.60;99.90
31725;DHT22;18306;40.960;14.836;2023-01-16T12:05:28;14.50;99.90
31725;DHT22;18306;40.960;14.836;2023-01-16T12:11:49;14.80;99.90
31725;DHT22;18306;40.960;14.836;2023-01-16T12:14:40;14.60;99.90
31725;DHT22;18306;40.960;14.836;2023-01-16T12:17:31;14.70;99.90
31725;DHT22;18306;40.960;14.836;2023-01-16T12:23:41;14.60;99.90
31725;DHT22;18306;40.960;14.836;2023-01-16T12:29:15;14.40;99.90
31725;DHT22;18306;40.960;14.836;2023-01-16T12:32:02;14.40;99.90
31725;DHT22;18306;40.960;14.836;2023-01-16T12:34:59;14.50;99.90
31725;DHT22;18306;40.960;14.836;2023-01-16T12:37:41;14.60;99.90
31725;DHT22;18306;40.960;14.836;2023-01-16T12:41:04;14.90;99.90
31725;DHT22;18306;40.960;14.836;2023-01-16T12:44:19;14.80;99.90
31725;DHT22;18306;40.960;14.836;2023-01-16T12:57:57;14.60;99.90
31725;DHT22;18306;40.960;14.836;2023-01-16T13:04:02;14.50;99.90
31725;DHT22;18306;40.960;14.836;2023-01-16T13:06:40;14.40;99.90
31725;DHT22;18306;40.960;14.836;2023-01-16T13:12:38;14.20;99.90
31725;DHT22;18306;40.960;14.836;2023-01-16T13:15:30;14.20;99.90
31725;DHT22;18306;40.960;14.836;2023-01-16T13:18:54;14.20;99.90
31725;DHT22;18306;40.960;14.836;2023-01-16T13:21:14;14.30;99.90
31725;DHT22;18306;40.960;14.836;2023-01-16T13:24:17;14.20;99.90
31725;DHT22;18306;40.960;14.836;2023-01-16T13:27:02;14.20;99.90
31725;DHT22;18306;40.960;14.836;2023-01-16T13:29:45;14.10;99.90
31725;DHT22;18306;40.960;14.836;2023-01-16T13:35:13;14.10;99.90
31725;DHT22;18306;40.960;14.836;2023-01-16T13:43:53;14.20;99.90
31725;DHT22;18306;40.960;14.836;2023-01-16T13:46:41;14.20;99.90
31725;DHT22;18306;40.960;14.836;2023-01-16T13:49:23;14.20;99.90
31725;DHT22;18306;40.960;14.836;2023-01-16T13:51:54;14.30;99.90
31725;DHT22;18306;40.960;14.836;2023-01-16T13:54:36;14.40;99.90
31725;DHT22;18306;40.960;14.836;2023-01-16T13:57:14;14.60;99.90
31725;DHT22;18306;40.960;14.836;2023-01-16T13:59:53;14.50;99.90
31725;DHT22;18306;40.960;14.836;2023-01-16T14:02:42;14.60;99.90
31725;DHT22;18306;40.960;14.836;2023-01-16T14:05:20;14.60;99.90
31725;DHT22;18306;40.960;14.836;2023-01-16T14:13:31;14.60;99.90
31725;DHT22;18306;40.960;14.836;2023-01-16T14:22:03;14.40;99.90
31725;DHT22;18306;40.960;14.836;2023-01-16T14:24:43;14.50;99.90
31725;DHT22;18306;40.960;14.836;2023-01-16T14:27:32;14.50;99.90
31725;DHT22;18306;40.960;14.836;2023-01-16T14:30:39;14.50;99.90
31725;DHT22;18306;40.960;14.836;2023-01-16T14:33:17;14.40;99.90
31725;DHT22;18306;40.960;14.836;2023-01-16T14:35:55;14.30;99.90
31725;DHT22;18306;40.960;14.836;2023-01-16T14:38:29;14.10;99.90
31725;DHT22;18306;40.960;14.836;2023-01-16T14:41:11;14.30;99.90
31725;DHT22;18306;40.960;14.836;2023-01-16T14:44:17;14.40;99.90
31725;DHT22;18306;40.960;14.836;2023-01-16T14:50:17;14.40;99.90
31725;DHT22;18306;40.960;14.836;2023-01-16T14:58:58;14.20;99.90
31725;DHT22;18306;40.960;14.836;2023-01-16T15:01:43;14.10;99.90
31725;DHT22;18306;40.960;14.836;2023-01-16T15:04:52;13.40;99.90
31725;DHT22;18306;40.960;14.836;2023-01-16T15:07:50;13.80;99.90
31725;DHT22;18306;40.960;14.836;2023-01-16T15:10:40;13.80;99.90
31725;DHT22;18306;40.960;14.836;2023-01-16T15:13:31;13.60;99.90
31725;DHT22;18306;40.960;14.836;2023-01-16T15:16:29;13.70;99.90
31725;DHT22;18306;40.960;14.836;2023-01-16T15:19:22;13.70;99.90
31725;DHT22;18306;40.960;14.836;2023-01-16T15:22:38;13.60;99.90
31725;DHT22;18306;40.960;14.836;2023-01-16T15:31:13;13.30;99.90
31725;DHT22;18306;40.960;14.836;2023-01-16T15:33:57;13.30;99.90
31725;DHT22;18306;40.960;14.836;2023-01-16T15:36:41;13.80;99.90
31725;DHT22;18306;40.960;14.836;2023-01-16T15:39:21;13.70;99.90
31725;DHT22;18306;40.960;14.836;2023-01-16T15:41:56;13.60;99.90
31725;DHT22;18306;40.960;14.836;2023-01-16T15:44:50;13.70;99.90
31725;DHT22;18306;40.960;14.836;2023-01-16T15:47:55;13.60;99.90
31725;DHT22;18306;40.960;14.836;2023-01-16T15:53:40;13.60;99.90
31725;DHT22;18306;40.960;14.836;2023-01-16T15:56:20;13.70;99.90
31725;DHT22;18306;40.960;14.836;2023-01-16T15:58:56;13.50;99.90
31725;DHT22;18306;40.960;14.836;2023-01-16T16:01:30;13.40;99.90
31725;DHT22;18306;40.960;14.836;2023-01-16T16:04:01;13.20;99.90
31725;DHT22;18306;40.960;14.836;2023-01-16T16:06:35;13.20;99.90
31725;DHT22;18306;40.960;14.836;2023-01-16T16:09:21;13.10;99.90
31725;DHT22;18306;40.960;14.836;2023-01-16T16:11:59;13.10;99.90
31725;DHT22;18306;40.960;14.836;2023-01-16T16:14:36;13.20;99.90
31725;DHT22;18306;40.960;14.836;2023-01-16T16:17:31;13.20;99.90
31725;DHT22;18306;40.960;14.836;2023-01-16T16:20:27;13.10;99.90
31725;DHT22;18306;40.960;14.836;2023-01-16T16:26:04;13.20;99.90
31725;DHT22;18306;40.960;14.836;2023-01-16T16:28:40;13.10;99.90
31725;DHT22;18306;40.960;14.836;2023-01-16T16:31:16;13.10;99.90
31725;DHT22;18306;40.960;14.836;2023-01-16T16:34:12;13.10;99.90
31725;DHT22;18306;40.960;14.836;2023-01-16T16:36:47;13.20;99.90
31725;DHT22;18306;40.960;14.836;2023-01-16T16:40:22;13.10;99.90
31725;DHT22;18306;40.960;14.836;2023-01-16T16:47:44;13.20;99.90
31725;DHT22;18306;40.960;14.836;2023-01-16T16:50:36;13.10;99.90
31725;DHT22;18306;40.960;14.836;2023-01-16T16:53:10;13.10;99.90
31725;DHT22;18306;40.960;14.836;2023-01-16T16:55:46;13.10;99.90
31725;DHT22;18306;40.960;14.836;2023-01-16T16:58:23;13.10;99.90
31725;DHT22;18306;40.960;14.836;2023-01-16T17:00:55;13.10;99.90
31725;DHT22;18306;40.960;14.836;2023-01-16T17:03:29;13.10;99.90
31725;DHT22;18306;40.960;14.836;2023-01-16T17:06:01;13.10;99.90
31725;DHT22;18306;40.960;14.836;2023-01-16T17:08:33;13.00;99.90
31725;DHT22;18306;40.960;14.836;2023-01-16T17:11:05;13.10;99.90
31725;DHT22;18306;40.960;14.836;2023-01-16T17:13:37;13.00;99.90
31725;DHT22;18306;40.960;14.836;2023-01-16T17:16:29;13.10;99.90
31725;DHT22;18306;40.960;14.836;2023-01-16T17:19:05;13.10;99.90
31725;DHT22;18306;40.960;14.836;2023-01-16T17:21:36;13.00;99.90
31725;DHT22;18306;40.960;14.836;2023-01-16T17:24:18;13.10;99.90
31725;DHT22;18306;40.960;14.836;2023-01-16T17:26:52;13.10;99.90
31725;DHT22;18306;40.960;14.836;2023-01-16T17:29:21;13.20;99.90
31725;DHT22;18306;40.960;14.836;2023-01-16T17:31:54;13.10;99.90
31725;DHT22;18306;40.960;14.836;2023-01-16T17:34:34;13.10;99.90
31725;DHT22;18306;40.960;14.836;2023-01-16T17:37:08;13.10;99.90
31725;DHT22;18306;40.960;14.836;2023-01-16T17:39:44;13.10;99.90
31725;DHT22;18306;40.960;14.836;2023-01-16T17:42:14;13.10;99.90
31725;DHT22;18306;40.960;14.836;2023-01-16T17:44:42;12.70;99.90
31725;DHT22;18306;40.960;14.836;2023-01-16T17:47:30;13.00;99.90
31725;DHT22;18306;40.960;14.836;2023-01-16T17:49:59;12.80;99.90
31725;DHT22;18306;40.960;14.836;2023-01-16T17:52:47;12.90;99.90
31725;DHT22;18306;40.960;14.836;2023-01-16T17:55:21;13.00;99.90
31725;DHT22;18306;40.960;14.836;2023-01-16T17:58:09;13.00;99.90
31725;DHT22;18306;40.960;14.836;2023-01-16T18:00:40;12.90;99.90
31725;DHT22;18306;40.960;14.836;2023-01-16T18:03:09;12.90;99.90
31725;DHT22;18306;40.960;14.836;2023-01-16T18:05:38;13.00;99.90
31725;DHT22;18306;40.960;14.836;2023-01-16T18:08:07;12.80;99.90
31725;DHT22;18306;40.960;14.836;2023-01-16T18:10:40;12.70;99.90
31725;DHT22;18306;40.960;14.836;2023-01-16T18:13:10;12.80;99.90
31725;DHT22;18306;40.960;14.836;2023-01-16T18:15:59;12.70;99.90
31725;DHT22;18306;40.960;14.836;2023-01-16T18:18:54;12.70;99.90
31725;DHT22;18306;40.960;14.836;2023-01-16T18:21:30;12.60;99.90
31725;DHT22;18306;40.960;14.836;2023-01-16T18:24:21;12.50;99.90
31725;DHT22;18306;40.960;14.836;2023-01-16T18:26:52;12.50;99.90
31725;DHT22;18306;40.960;14.836;2023-01-16T18:29:24;12.50;99.90
31725;DHT22;18306;40.960;14.836;2023-01-16T18:31:57;12.60;99.90
31725;DHT22;18306;40.960;14.836;2023-01-16T18:34:51;12.60;99.90
31725;DHT22;18306;40.960;14.836;2023-01-16T18:37:32;12.50;99.90
31725;DHT22;18306;40.960;14.836;2023-01-16T18:40:06;12.50;99.90
31725;DHT22;18306;40.960;14.836;2023-01-16T18:42:54;12.80;99.90
31725;DHT22;18306;40.960;14.836;2023-01-16T18:45:42;12.60;99.90
31725;DHT22;18306;40.960;14.836;2023-01-16T18:48:30;12.50;99.90
31725;DHT22;18306;40.960;14.836;2023-01-16T18:51:17;12.40;99.90
31725;DHT22;18306;40.960;14.836;2023-01-16T18:54:23;12.30;99.90
31725;DHT22;18306;40.960;14.836;2023-01-16T18:57:12;12.40;99.90